createdAt,value
2019-03-12T00:03:56.549Z,78.91
2019-03-12T00:06:45.336Z,78.74
2019-03-12T00:09:34.154Z,78.66
2019-03-12T00:12:22.973Z,78.60
2019-03-12T00:18:28.468Z,78.58
2019-03-12T00:21:17.150Z,78.10
2019-03-12T00:24:05.948Z,78.33
2019-03-12T00:26:54.765Z,79.09
2019-03-12T00:30:02.611Z,80.52
2019-03-12T00:32:51.399Z,79.62
2019-03-12T00:35:40.213Z,78.57
2019-03-12T00:38:29.008Z,77.56
2019-03-12T00:41:20.099Z,77.45
2019-03-12T00:44:08.345Z,77.21
2019-03-12T00:47:04.068Z,77.81
2019-03-12T00:49:52.862Z,77.91
2019-03-12T00:52:34.298Z,77.19
2019-03-12T00:55:23.098Z,78.15
2019-03-12T00:58:11.905Z,76.56
2019-03-12T01:01:00.701Z,76.69
2019-03-12T01:03:49.514Z,75.41
2019-03-12T01:06:38.333Z,75.62
2019-03-12T01:09:27.307Z,74.78
2019-03-12T01:12:16.125Z,75.62
2019-03-12T01:18:20.348Z,75.80
2019-03-12T01:21:09.145Z,75.43
2019-03-12T01:23:57.957Z,75.79
2019-03-12T01:26:46.751Z,75.85
2019-03-12T01:29:35.568Z,76.14
2019-03-12T01:32:24.364Z,75.70
2019-03-12T01:35:13.342Z,74.61
2019-03-12T01:38:02.230Z,74.04
2019-03-12T01:41:10.052Z,72.92
2019-03-12T01:43:58.861Z,73.78
2019-03-12T01:46:47.655Z,73.76
2019-03-12T01:49:29.153Z,74.55
2019-03-12T01:52:17.958Z,74.64
2019-03-12T01:55:26.089Z,74.58
2019-03-12T01:58:14.905Z,74.95
2019-03-12T02:01:22.725Z,75.02
2019-03-12T02:04:11.614Z,74.87
2019-03-12T02:07:00.404Z,75.43
2019-03-12T02:09:49.219Z,74.26
2019-03-12T02:12:38.009Z,75.10
2019-03-12T02:15:26.827Z,73.36
2019-03-12T02:18:15.626Z,73.47
2019-03-12T02:21:04.436Z,73.26
2019-03-12T02:23:53.274Z,73.61
2019-03-12T02:26:42.097Z,73.35
2019-03-12T02:29:30.890Z,73.93
2019-03-12T02:32:19.715Z,74.25
2019-03-12T02:35:08.685Z,73.39
2019-03-12T02:37:57.492Z,76.75
2019-03-12T02:40:46.307Z,75.79
2019-03-12T02:43:35.100Z,75.88
2019-03-12T02:46:23.926Z,75.28
2019-03-12T02:49:09.182Z,75.72
2019-03-12T02:51:55.822Z,75.96
2019-03-12T02:54:44.661Z,75.36
2019-03-12T02:57:33.473Z,75.06
2019-03-12T03:03:32.105Z,74.80
2019-03-12T03:06:39.910Z,75.52
2019-03-12T03:09:28.733Z,77.21
2019-03-12T03:12:17.529Z,78.03
2019-03-12T03:18:22.967Z,77.82
2019-03-12T03:24:19.515Z,77.41
2019-03-12T03:27:08.313Z,77.40
2019-03-12T03:29:57.201Z,77.47
2019-03-12T03:32:46.035Z,78.39
2019-03-12T03:35:34.831Z,78.36
2019-03-12T03:38:23.636Z,77.65
2019-03-12T03:41:12.441Z,77.05
2019-03-12T03:44:20.261Z,76.64
2019-03-12T03:47:09.085Z,76.39
2019-03-12T03:49:50.357Z,76.73
2019-03-12T03:52:39.245Z,76.57
2019-03-12T03:55:28.045Z,76.35
2019-03-12T03:58:16.937Z,76.24
2019-03-12T04:01:05.727Z,75.62
2019-03-12T04:03:54.549Z,75.94
2019-03-12T04:06:43.343Z,76.46
2019-03-12T04:09:32.160Z,76.53
2019-03-12T04:12:20.965Z,76.24
2019-03-12T04:15:30.680Z,76.21
2019-03-12T04:18:19.498Z,76.37
2019-03-12T04:21:08.319Z,77.23
2019-03-12T04:23:57.182Z,76.81
2019-03-12T04:26:46.022Z,77.15
2019-03-12T04:29:34.808Z,77.04
2019-03-12T04:32:23.639Z,77.52
2019-03-12T04:35:32.905Z,78.32
2019-03-12T04:38:21.714Z,78.89
2019-03-12T04:41:10.527Z,79.10
2019-03-12T04:43:59.323Z,79.52
2019-03-12T04:46:48.220Z,79.16
2019-03-12T04:49:37.006Z,79.79
2019-03-12T04:52:18.960Z,78.94
2019-03-12T04:55:28.667Z,79.38
2019-03-12T04:58:17.477Z,79.81
2019-03-12T05:01:06.364Z,78.97
2019-03-12T05:03:55.169Z,80.01
2019-03-12T05:06:43.981Z,79.37
2019-03-12T05:09:32.788Z,79.87
2019-03-12T05:12:21.613Z,79.76
2019-03-12T05:15:31.312Z,79.06
2019-03-12T05:18:40.176Z,80.13
2019-03-12T05:21:28.973Z,79.85
2019-03-12T05:24:17.802Z,79.94
2019-03-12T05:27:06.589Z,79.72
2019-03-12T05:29:55.415Z,79.01
2019-03-12T05:32:44.214Z,78.80
2019-03-12T05:35:33.034Z,78.56
2019-03-12T05:38:21.827Z,78.34
2019-03-12T05:41:12.367Z,78.06
2019-03-12T05:44:01.223Z,77.72
2019-03-12T05:46:50.072Z,78.03
2019-03-12T05:49:38.852Z,77.70
2019-03-12T05:52:20.308Z,77.37
2019-03-12T05:55:30.028Z,77.15
2019-03-12T05:58:37.936Z,76.91
2019-03-12T06:01:26.748Z,77.20
2019-03-12T06:04:15.559Z,76.97
2019-03-12T06:07:04.354Z,76.82
2019-03-12T06:09:53.173Z,76.58
2019-03-12T06:12:41.982Z,76.71
2019-03-12T06:15:30.798Z,77.46
2019-03-12T06:18:19.588Z,77.04
2019-03-12T06:21:08.403Z,76.99
2019-03-12T06:27:04.966Z,76.67
2019-03-12T06:29:53.759Z,76.86
2019-03-12T06:35:57.016Z,76.31
2019-03-12T06:39:04.875Z,75.87
2019-03-12T06:42:12.691Z,76.05
2019-03-12T06:45:01.285Z,76.03
2019-03-12T06:48:09.150Z,76.33
2019-03-12T06:51:16.993Z,77.45
2019-03-12T06:54:00.260Z,76.87
2019-03-12T06:57:08.079Z,76.66
2019-03-12T07:00:15.928Z,76.72
2019-03-12T07:03:23.919Z,76.55
2019-03-12T07:06:31.776Z,76.34
2019-03-12T07:09:39.629Z,76.78
2019-03-12T07:12:47.447Z,76.70
2019-03-12T07:15:55.292Z,76.17
2019-03-12T07:19:03.148Z,75.65
2019-03-12T07:22:10.969Z,75.90
2019-03-12T07:25:18.826Z,75.51
2019-03-12T07:28:26.642Z,75.06
2019-03-12T07:34:36.467Z,74.36
2019-03-12T07:37:39.881Z,74.22
2019-03-12T07:40:47.720Z,73.98
2019-03-12T07:43:55.538Z,73.96
2019-03-12T07:47:03.390Z,73.80
2019-03-12T07:50:11.210Z,74.24
2019-03-12T07:53:19.067Z,74.43
2019-03-12T07:56:26.890Z,74.07
2019-03-12T07:59:34.724Z,73.67
2019-03-12T08:02:23.379Z,74.52
2019-03-12T08:05:12.017Z,73.44
2019-03-12T08:11:15.748Z,73.49
2019-03-12T08:17:33.190Z,72.69
2019-03-12T08:20:41.037Z,72.36
2019-03-12T08:29:38.721Z,70.98
2019-03-12T08:32:46.566Z,71.31
2019-03-12T08:35:54.415Z,69.96
2019-03-12T08:39:02.240Z,70.20
2019-03-12T08:42:10.088Z,69.37
2019-03-12T08:45:17.923Z,69.43
2019-03-12T08:48:25.762Z,70.49
2019-03-12T08:51:14.358Z,71.50
2019-03-12T08:54:22.203Z,71.38
2019-03-12T09:00:50.033Z,69.39
2019-03-12T09:06:32.650Z,69.70
2019-03-12T09:09:40.498Z,69.40
2019-03-12T09:12:48.347Z,68.84
2019-03-12T09:15:36.909Z,69.15
2019-03-12T09:18:44.763Z,69.53
2019-03-12T09:25:01.982Z,70.17
2019-03-12T09:28:30.746Z,70.31
2019-03-12T09:40:46.180Z,69.21
2019-03-12T09:52:58.463Z,67.11
2019-03-12T09:56:06.278Z,67.46
2019-03-12T10:05:12.326Z,66.57
2019-03-12T10:07:55.988Z,65.76
2019-03-12T10:11:03.861Z,65.77
2019-03-12T10:17:07.633Z,66.00
2019-03-12T10:29:06.306Z,63.78
2019-03-12T10:32:14.155Z,62.84
2019-03-12T10:39:29.174Z,62.42
2019-03-12T10:42:36.981Z,62.09
2019-03-12T10:45:44.819Z,61.80
2019-03-12T10:48:33.615Z,61.35
2019-03-12T10:51:22.448Z,59.64
2019-03-12T10:54:11.240Z,58.39
2019-03-12T10:57:00.054Z,58.90
2019-03-12T10:59:48.883Z,58.13
2019-03-12T11:02:40.603Z,57.07
2019-03-12T11:05:28.222Z,57.89
2019-03-12T11:08:09.426Z,57.80
2019-03-12T11:10:58.248Z,58.82
2019-03-12T11:13:47.033Z,56.75
2019-03-12T11:16:35.855Z,57.13
2019-03-12T11:19:24.678Z,57.18
2019-03-12T11:22:13.495Z,56.49
2019-03-12T11:25:27.435Z,56.05
2019-03-12T11:28:11.858Z,55.60
2019-03-12T11:31:00.661Z,55.06
2019-03-12T11:33:49.472Z,55.60
2019-03-12T11:36:38.337Z,55.91
2019-03-12T11:39:27.383Z,55.63
2019-03-12T11:42:16.218Z,56.03
2019-03-12T11:45:36.406Z,55.50
2019-03-12T11:48:16.509Z,55.67
2019-03-12T11:51:05.346Z,55.48
2019-03-12T11:53:55.810Z,55.13
2019-03-12T11:56:44.633Z,56.22
2019-03-12T11:59:33.442Z,55.29
2019-03-12T12:02:22.249Z,55.55
2019-03-12T12:05:11.144Z,55.43
2019-03-12T12:07:53.456Z,55.62
2019-03-12T12:10:42.870Z,55.33
2019-03-12T12:13:31.739Z,55.47
2019-03-12T12:16:20.585Z,56.03
2019-03-12T12:19:09.382Z,55.55
2019-03-12T12:21:58.198Z,54.56
2019-03-12T12:24:46.999Z,54.02
2019-03-12T12:27:35.816Z,55.30
2019-03-12T12:30:24.978Z,54.54
2019-03-12T12:33:13.770Z,54.63
2019-03-12T12:36:02.600Z,55.11
2019-03-12T12:38:51.416Z,55.50
2019-03-12T12:41:40.221Z,55.10
2019-03-12T12:44:29.036Z,54.31
2019-03-12T12:47:17.832Z,53.80
2019-03-12T12:50:27.564Z,54.75
2019-03-12T12:53:16.373Z,55.37
2019-03-12T12:56:24.365Z,55.16
2019-03-12T12:59:13.153Z,54.80
2019-03-12T13:02:01.991Z,54.21
2019-03-12T13:04:50.789Z,53.88
2019-03-12T13:07:39.605Z,53.99
2019-03-12T13:10:27.165Z,53.91
2019-03-12T13:13:16.011Z,53.44
2019-03-12T13:16:04.883Z,53.13
2019-03-12T13:18:53.699Z,52.57
2019-03-12T13:21:42.851Z,51.88
2019-03-12T13:24:50.699Z,52.16
2019-03-12T13:27:42.514Z,51.85
2019-03-12T13:30:30.101Z,51.61
2019-03-12T13:33:18.893Z,51.52
2019-03-12T13:42:02.706Z,51.70
2019-03-12T13:44:53.001Z,50.90
2019-03-12T13:47:41.870Z,51.20
2019-03-12T13:50:30.696Z,51.46
2019-03-12T13:53:19.520Z,51.19
2019-03-12T13:56:08.317Z,50.85
2019-03-12T13:58:57.102Z,50.50
2019-03-12T14:04:39.884Z,50.53
2019-03-12T14:10:34.618Z,48.99
2019-03-12T14:13:24.203Z,48.91
2019-03-12T14:16:13.022Z,50.17
2019-03-12T14:19:01.813Z,48.12
2019-03-12T14:21:50.641Z,47.86
2019-03-12T14:24:39.438Z,48.39
2019-03-12T14:27:28.275Z,48.39
2019-03-12T14:30:17.146Z,48.29
2019-03-12T14:33:06.032Z,47.72
2019-03-12T14:35:54.839Z,47.07
2019-03-12T14:38:43.662Z,47.86
2019-03-12T14:41:32.476Z,45.66
2019-03-12T14:44:21.300Z,44.25
2019-03-12T14:47:10.158Z,42.41
2019-03-12T14:49:58.965Z,42.73
2019-03-12T14:53:21.021Z,41.57
2019-03-12T14:55:59.349Z,42.20
2019-03-12T14:58:51.167Z,42.72
2019-03-12T15:01:38.711Z,43.42
2019-03-12T15:04:28.119Z,43.59
2019-03-12T15:07:16.938Z,45.04
2019-03-12T15:09:59.289Z,43.71
2019-03-12T15:12:48.114Z,43.30
2019-03-12T15:15:36.905Z,43.26
2019-03-12T15:18:25.727Z,43.43
2019-03-12T15:21:14.621Z,44.91
2019-03-12T15:24:03.438Z,46.13
2019-03-12T15:26:52.245Z,46.95
2019-03-12T15:29:41.149Z,48.14
2019-03-12T15:32:30.010Z,48.93
2019-03-12T15:35:18.888Z,49.69
2019-03-12T15:38:07.716Z,49.70
2019-03-12T15:40:56.517Z,50.54
2019-03-12T15:43:45.332Z,50.17
2019-03-12T15:46:34.222Z,50.03
2019-03-12T15:49:23.022Z,49.71
2019-03-12T15:52:11.836Z,50.03
2019-03-12T15:55:00.650Z,49.98
2019-03-12T15:57:49.480Z,50.10
2019-03-12T16:00:38.307Z,50.04
2019-03-12T16:03:41.810Z,50.79
2019-03-12T16:06:17.659Z,50.82
2019-03-12T16:08:59.698Z,51.14
2019-03-12T16:11:48.510Z,51.74
2019-03-12T16:14:37.333Z,51.76
2019-03-12T16:17:45.173Z,51.46
2019-03-12T16:20:34.044Z,51.81
2019-03-12T16:23:22.854Z,52.36
2019-03-12T16:26:11.651Z,52.13
2019-03-12T16:29:00.471Z,52.17
2019-03-12T16:31:49.277Z,52.03
2019-03-12T16:34:38.093Z,52.40
2019-03-12T16:37:27.319Z,52.09
2019-03-12T16:43:31.927Z,52.19
2019-03-12T16:46:20.743Z,51.63
2019-03-12T16:49:09.569Z,51.70
2019-03-12T16:51:58.381Z,52.62
2019-03-12T16:54:47.257Z,51.36
2019-03-12T16:57:36.104Z,51.40
2019-03-12T17:00:24.990Z,51.43
2019-03-12T17:03:13.880Z,51.15
2019-03-12T17:06:02.706Z,51.00
2019-03-12T17:08:51.500Z,51.73
2019-03-12T17:11:33.187Z,51.11
2019-03-12T17:14:22.023Z,51.32
2019-03-12T17:17:10.880Z,51.39
2019-03-12T17:19:59.709Z,51.52
2019-03-12T17:22:48.570Z,51.31
2019-03-12T17:25:37.442Z,51.53
2019-03-12T17:28:26.310Z,51.22
2019-03-12T17:31:15.145Z,51.22
2019-03-12T17:34:04.001Z,51.10
2019-03-12T17:36:52.845Z,51.17
2019-03-12T17:39:41.685Z,50.84
2019-03-12T17:42:30.578Z,50.96
2019-03-12T17:45:19.414Z,50.57
2019-03-12T17:48:08.209Z,50.16
2019-03-12T17:50:57.033Z,50.09
2019-03-12T17:53:45.852Z,50.20
2019-03-12T17:56:34.649Z,50.20
2019-03-12T17:59:23.471Z,50.08
2019-03-12T18:02:12.272Z,50.19
2019-03-12T18:05:01.094Z,49.84
2019-03-12T18:07:49.889Z,50.19
2019-03-12T18:10:31.477Z,49.02
2019-03-12T18:13:20.337Z,49.17
2019-03-12T18:16:09.155Z,49.52
2019-03-12T18:18:57.942Z,48.91
2019-03-12T18:21:46.774Z,48.67
2019-03-12T18:24:35.573Z,48.94
2019-03-12T18:27:24.460Z,48.13
2019-03-12T18:30:32.910Z,48.71
2019-03-12T18:33:21.800Z,48.82
2019-03-12T18:36:10.583Z,48.50
2019-03-12T18:39:02.954Z,48.59
2019-03-12T18:41:50.166Z,48.12
2019-03-12T18:44:39.152Z,47.96
2019-03-12T18:47:27.957Z,47.92
2019-03-12T18:50:37.683Z,48.10
2019-03-12T18:53:19.270Z,47.94
2019-03-12T18:56:08.096Z,48.01
2019-03-12T18:58:56.892Z,47.88
2019-03-12T19:01:45.720Z,47.92
2019-03-12T19:04:34.533Z,48.24
2019-03-12T19:07:23.393Z,48.57
2019-03-12T19:10:13.046Z,48.37
2019-03-12T19:13:03.226Z,48.51
2019-03-12T19:15:52.033Z,47.91
2019-03-12T19:18:40.947Z,47.46
2019-03-12T19:21:29.764Z,47.77
2019-03-12T19:24:18.589Z,47.54
2019-03-12T19:33:32.471Z,47.29
2019-03-12T19:36:21.604Z,46.68
2019-03-12T19:42:19.860Z,47.10
2019-03-12T19:45:29.659Z,46.90
2019-03-12T19:48:18.467Z,47.04
2019-03-12T19:51:07.269Z,47.00
2019-03-12T19:53:49.332Z,47.06
2019-03-12T19:56:38.129Z,47.20
2019-03-12T19:59:27.012Z,46.98
2019-03-12T20:02:36.751Z,46.64
2019-03-12T20:05:25.543Z,47.28
2019-03-12T20:08:14.362Z,47.58
2019-03-12T20:11:41.868Z,47.61
2019-03-12T20:15:09.384Z,48.42
2019-03-12T20:18:36.878Z,47.70
2019-03-12T20:21:46.614Z,47.36
2019-03-12T20:24:56.321Z,47.56
2019-03-12T20:28:23.864Z,47.70
2019-03-12T20:31:33.642Z,47.48
2019-03-12T20:34:43.359Z,46.78
2019-03-12T20:38:10.872Z,46.05
2019-03-12T20:41:38.378Z,45.51
2019-03-12T20:45:05.889Z,45.05
2019-03-12T20:48:33.399Z,45.73
2019-03-12T20:52:00.935Z,46.18
2019-03-12T20:55:28.499Z,46.54
2019-03-12T20:58:56.015Z,46.17
2019-03-12T21:02:23.509Z,46.41
2019-03-12T21:05:51.017Z,46.56
2019-03-12T21:09:18.515Z,46.49
2019-03-12T21:12:46.044Z,46.30
2019-03-12T21:16:13.564Z,46.25
2019-03-12T21:19:45.017Z,46.93
2019-03-12T21:23:12.524Z,46.91
2019-03-12T21:26:40.014Z,47.43
2019-03-12T21:29:48.929Z,47.36
2019-03-12T21:32:37.746Z,47.71
2019-03-12T21:35:26.572Z,47.27
2019-03-12T21:38:15.364Z,47.92
2019-03-12T21:41:04.261Z,48.04
2019-03-12T21:43:53.071Z,47.80
2019-03-12T21:46:41.883Z,48.84
2019-03-12T21:49:30.766Z,49.88
2019-03-12T21:52:19.563Z,49.93
2019-03-12T21:55:27.733Z,49.46
2019-03-12T21:58:16.574Z,49.74
2019-03-12T22:01:05.464Z,49.81
2019-03-12T22:03:54.327Z,50.12
2019-03-12T22:06:43.177Z,49.48
2019-03-12T22:09:31.981Z,49.16
2019-03-12T22:12:20.794Z,49.36
2019-03-12T22:15:30.506Z,49.06
2019-03-12T22:18:19.320Z,49.60
2019-03-12T22:21:08.121Z,49.16
2019-03-12T22:26:55.976Z,49.11
2019-03-12T22:29:44.766Z,48.90
2019-03-12T22:32:33.581Z,49.06
2019-03-12T22:35:22.417Z,49.03
2019-03-12T22:38:11.228Z,48.73
2019-03-12T22:41:00.036Z,48.94
2019-03-12T22:43:48.959Z,49.43
2019-03-12T22:46:37.754Z,49.25
2019-03-12T22:49:26.583Z,49.15
2019-03-12T22:52:15.379Z,49.28
2019-03-12T22:54:57.496Z,49.74
2019-03-12T22:57:46.296Z,50.30
2019-03-12T23:00:54.205Z,50.23
2019-03-12T23:03:42.996Z,50.67
2019-03-12T23:06:31.810Z,52.16
2019-03-12T23:09:20.618Z,56.31
2019-03-12T23:12:09.570Z,64.59
2019-03-12T23:14:58.375Z,66.21
2019-03-12T23:17:47.252Z,67.59
2019-03-12T23:20:36.087Z,66.64
2019-03-12T23:23:24.913Z,65.67
2019-03-12T23:26:13.700Z,66.33
2019-03-12T23:29:02.499Z,66.88
2019-03-12T23:31:51.383Z,66.96
2019-03-12T23:34:32.972Z,67.99
2019-03-12T23:37:21.874Z,67.81
2019-03-12T23:40:30.006Z,67.87
2019-03-12T23:43:18.808Z,68.10
2019-03-12T23:46:07.708Z,69.18
2019-03-12T23:48:56.496Z,69.53
2019-03-12T23:51:45.317Z,69.58
2019-03-12T23:54:27.143Z,69.63
2019-03-12T23:57:16.229Z,69.25
